createdAt,value
2018-06-08T00:00:01.649Z,14.90
2018-06-08T00:02:29.775Z,15.55
2018-06-08T00:04:58.503Z,14.43
2018-06-08T00:07:25.595Z,15.25
2018-06-08T00:09:52.221Z,15.52
2018-06-08T00:12:20.155Z,14.65
2018-06-08T00:14:47.446Z,13.70
2018-06-08T00:17:14.530Z,14.32
2018-06-08T00:19:41.435Z,14.38
2018-06-08T00:22:08.149Z,14.68
2018-06-08T00:24:36.789Z,14.38
2018-06-08T00:27:04.562Z,15.02
2018-06-08T00:29:32.367Z,16.37
2018-06-08T00:32:00.243Z,21.77
2018-06-08T00:34:26.942Z,15.25
2018-06-08T00:36:53.116Z,13.62
2018-06-08T00:39:20.046Z,13.48
2018-06-08T00:41:47.694Z,16.02
2018-06-08T00:44:16.881Z,15.43
2018-06-08T00:46:43.579Z,14.00
2018-06-08T00:49:10.435Z,13.93
2018-06-08T00:51:37.329Z,15.70
2018-06-08T00:54:04.438Z,15.77
2018-06-08T00:56:31.793Z,17.10
2018-06-08T00:58:59.558Z,16.55
2018-06-08T01:01:26.659Z,19.48
2018-06-08T01:03:53.536Z,14.50
2018-06-08T01:06:21.212Z,16.87
2018-06-08T01:08:47.921Z,16.42
2018-06-08T01:11:14.806Z,15.60
2018-06-08T01:13:41.478Z,17.23
2018-06-08T01:16:07.569Z,15.52
2018-06-08T01:18:34.214Z,16.45
2018-06-08T01:21:01.371Z,15.40
2018-06-08T01:23:28.588Z,15.10
2018-06-08T01:25:55.854Z,15.20
2018-06-08T01:28:23.273Z,15.20
2018-06-08T01:30:51.810Z,18.65
2018-06-08T01:33:18.617Z,14.75
2018-06-08T01:35:46.265Z,15.18
2018-06-08T01:38:13.951Z,15.68
2018-06-08T01:40:41.651Z,17.65
2018-06-08T01:43:09.059Z,15.13
2018-06-08T01:45:35.651Z,13.60
2018-06-08T01:48:02.386Z,17.20
2018-06-08T01:50:29.047Z,20.12
2018-06-08T01:52:57.377Z,12.60
2018-06-08T01:55:25.231Z,13.57
2018-06-08T01:57:51.646Z,14.35
2018-06-08T02:00:18.009Z,16.83
2018-06-08T02:02:45.151Z,15.07
2018-06-08T02:05:11.746Z,13.05
2018-06-08T02:07:38.353Z,12.88
2018-06-08T02:10:05.474Z,12.25
2018-06-08T02:12:33.026Z,11.70
2018-06-08T02:15:00.539Z,12.10
2018-06-08T02:17:26.910Z,15.00
2018-06-08T02:19:53.305Z,14.40
2018-06-08T02:22:19.766Z,12.70
2018-06-08T02:24:47.794Z,14.32
2018-06-08T02:27:15.002Z,18.33
2018-06-08T02:29:41.738Z,16.85
2018-06-08T02:32:09.279Z,14.90
2018-06-08T02:34:35.717Z,16.35
2018-06-08T02:37:03.275Z,14.87
2018-06-08T02:39:30.911Z,15.77
2018-06-08T02:41:58.134Z,15.23
2018-06-08T02:44:24.915Z,15.00
2018-06-08T02:46:53.872Z,15.50
2018-06-08T02:49:20.679Z,17.12
2018-06-08T02:51:47.369Z,19.20
2018-06-08T02:54:14.981Z,20.92
2018-06-08T02:56:41.277Z,20.58
2018-06-08T02:59:07.985Z,20.58
2018-06-08T03:01:34.583Z,17.60
2018-06-08T03:04:00.988Z,26.20
2018-06-08T03:06:28.154Z,20.23
2018-06-08T03:08:54.778Z,18.77
2018-06-08T03:11:21.066Z,20.23
2018-06-08T03:13:47.310Z,21.52
2018-06-08T03:16:13.447Z,24.27
2018-06-08T03:18:39.422Z,22.17
2018-06-08T03:21:05.558Z,25.00
2018-06-08T03:23:32.551Z,24.40
2018-06-08T03:25:59.311Z,22.70
2018-06-08T03:28:26.122Z,23.90
2018-06-08T03:30:52.443Z,25.58
2018-06-08T03:33:18.488Z,20.23
2018-06-08T03:35:44.677Z,21.37
2018-06-08T03:38:11.777Z,30.05
2018-06-08T03:40:39.706Z,22.98
2018-06-08T03:43:06.938Z,23.77
2018-06-08T03:45:33.482Z,22.55
2018-06-08T03:47:59.681Z,21.80
2018-06-08T03:50:25.976Z,22.13
2018-06-08T03:52:51.954Z,21.93
2018-06-08T03:55:17.979Z,17.67
2018-06-08T03:57:44.002Z,18.87
2018-06-08T04:00:09.970Z,18.37
2018-06-08T04:02:35.922Z,19.40
2018-06-08T04:05:01.903Z,17.10
2018-06-08T04:07:27.846Z,16.97
2018-06-08T04:09:53.789Z,18.53
2018-06-08T04:12:19.803Z,14.80
2018-06-08T04:14:47.413Z,15.50
2018-06-08T04:17:13.937Z,14.57
2018-06-08T04:19:41.143Z,15.45
2018-06-08T04:22:07.131Z,14.10
2018-06-08T04:24:33.879Z,13.98
2018-06-08T04:27:00.252Z,15.13
2018-06-08T04:29:26.264Z,18.85
2018-06-08T04:31:53.144Z,12.50
2018-06-08T04:34:19.155Z,12.77
2018-06-08T04:36:45.287Z,13.27
2018-06-08T04:39:11.365Z,13.20
2018-06-08T04:41:37.490Z,13.73
2018-06-08T04:44:03.561Z,13.65
2018-06-08T04:46:29.492Z,12.13
2018-06-08T04:48:55.446Z,11.57
2018-06-08T04:51:22.212Z,10.83
2018-06-08T04:53:48.225Z,10.50
2018-06-08T04:56:15.821Z,11.45
2018-06-08T04:58:42.891Z,10.82
2018-06-08T05:01:09.011Z,10.88
2018-06-08T05:03:36.344Z,11.95
2018-06-08T05:06:02.535Z,10.90
2018-06-08T05:08:28.635Z,11.30
2018-06-08T05:10:56.086Z,10.45
2018-06-08T05:13:22.100Z,11.12
2018-06-08T05:15:48.303Z,10.75
2018-06-08T05:18:14.895Z,10.50
2018-06-08T05:20:41.306Z,9.70
2018-06-08T05:23:07.696Z,9.75
2018-06-08T05:25:33.714Z,10.73
2018-06-08T05:27:59.839Z,9.90
2018-06-08T05:30:26.102Z,10.82
2018-06-08T05:32:52.341Z,10.55
2018-06-08T05:35:18.728Z,11.02
2018-06-08T05:37:46.509Z,12.13
2018-06-08T05:40:13.194Z,11.65
2018-06-08T05:42:39.827Z,11.60
2018-06-08T05:45:05.858Z,11.48
2018-06-08T05:47:32.090Z,12.27
2018-06-08T05:49:58.378Z,11.73
2018-06-08T05:52:24.462Z,11.35
2018-06-08T05:54:50.774Z,11.45
2018-06-08T05:57:17.002Z,11.27
2018-06-08T05:59:43.166Z,10.65
2018-06-08T06:02:09.625Z,11.88
2018-06-08T06:04:35.858Z,12.88
2018-06-08T06:07:02.060Z,12.27
2018-06-08T06:09:28.418Z,12.30
2018-06-08T06:11:56.222Z,13.07
2018-06-08T06:14:23.300Z,11.95
2018-06-08T06:16:51.547Z,13.52
2018-06-08T06:19:19.202Z,15.77
2018-06-08T06:21:46.301Z,10.70
2018-06-08T06:24:12.615Z,9.93
2018-06-08T06:26:39.583Z,10.25
2018-06-08T06:29:06.336Z,11.18
2018-06-08T07:20:49.667Z,13.77
2018-06-08T07:23:19.598Z,12.65
2018-06-08T07:25:49.686Z,12.35
2018-06-08T07:28:18.786Z,12.45
2018-06-08T07:30:48.512Z,14.07
2018-06-08T07:33:17.342Z,13.65
2018-06-08T07:35:43.681Z,14.87
2018-06-08T07:38:10.441Z,14.75
2018-06-08T07:40:38.398Z,14.40
2018-06-08T07:43:04.895Z,14.95
2018-06-08T07:45:30.996Z,15.63
2018-06-08T07:47:58.289Z,15.65
2018-06-08T07:50:24.533Z,14.45
2018-06-08T07:52:50.694Z,14.63
2018-06-08T07:55:16.730Z,15.18
2018-06-08T07:57:42.782Z,16.17
2018-06-08T08:00:09.669Z,15.82
2018-06-08T08:02:35.982Z,14.27
2018-06-08T08:05:02.066Z,17.20
2018-06-08T08:07:28.310Z,16.00
2018-06-08T08:09:55.097Z,14.60
2018-06-08T08:12:21.798Z,15.83
2018-06-08T08:14:47.755Z,15.93
2018-06-08T08:17:14.469Z,17.17
2018-06-08T08:19:40.391Z,17.90
2018-06-08T08:22:06.418Z,17.27
2018-06-08T08:24:32.445Z,17.73
2018-06-08T08:26:58.533Z,18.60
2018-06-08T08:29:24.563Z,18.13
2018-06-08T08:31:50.556Z,16.20
2018-06-08T08:40:20.695Z,16.87
2018-06-08T11:31:36.438Z,11.67
2018-06-08T11:34:24.263Z,13.30
2018-06-08T13:33:03.059Z,16.50
2018-06-08T13:35:39.229Z,15.90
2018-06-08T14:17:57.932Z,14.00
2018-06-08T14:24:09.909Z,13.13
2018-06-08T14:41:50.846Z,12.57
2018-06-08T14:44:21.339Z,13.17
2018-06-08T14:46:54.258Z,12.37
2018-06-08T14:49:24.317Z,13.23
2018-06-08T14:51:53.876Z,12.30
2018-06-08T14:57:17.558Z,12.50
2018-06-08T16:19:14.579Z,9.47
2018-06-08T16:24:44.145Z,9.23
2018-06-08T16:27:10.510Z,9.00
2018-06-08T16:29:37.806Z,10.00
2018-06-08T16:32:04.043Z,9.30
2018-06-08T16:34:29.961Z,9.80
2018-06-08T16:36:55.950Z,9.60
2018-06-08T16:39:21.894Z,8.80
2018-06-08T16:42:00.906Z,10.20
2018-06-08T16:44:26.861Z,8.67
2018-06-08T16:46:52.781Z,9.40
2018-06-08T16:49:18.698Z,9.03
2018-06-08T16:51:44.581Z,9.40
2018-06-08T16:54:10.497Z,8.87
2018-06-08T16:56:36.385Z,9.47
2018-06-08T16:59:02.315Z,9.33
2018-06-08T17:01:28.969Z,9.50
2018-06-08T17:03:54.938Z,7.67
2018-06-08T17:06:20.841Z,5.97
2018-06-08T17:08:46.755Z,6.10
2018-06-08T17:11:12.664Z,6.70
2018-06-08T17:13:38.605Z,6.50
2018-06-08T17:16:04.545Z,6.53
2018-06-08T17:18:30.431Z,6.83
2018-06-08T17:20:56.359Z,5.53
2018-06-08T17:23:22.276Z,6.87
2018-06-08T17:25:48.239Z,7.03
2018-06-08T17:28:14.155Z,7.80
2018-06-08T17:30:40.076Z,7.50
2018-06-08T17:33:28.102Z,8.60
2018-06-08T17:39:00.677Z,9.47
2018-06-08T17:41:32.442Z,10.80
2018-06-08T18:51:19.366Z,6.28
2018-06-08T18:53:54.071Z,7.60
2018-06-08T18:56:31.777Z,8.90
2018-06-08T19:08:39.303Z,8.98
